createdAt,value
2023-11-16T00:01:39.084Z,9.30
2023-11-16T00:04:10.973Z,9.30
2023-11-16T00:06:40.554Z,9.40
2023-11-16T00:09:08.059Z,9.40
2023-11-16T00:11:35.314Z,9.40
2023-11-16T00:14:02.502Z,9.30
2023-11-16T00:16:29.743Z,9.30
2023-11-16T00:18:56.903Z,9.30
2023-11-16T00:21:23.935Z,9.30
2023-11-16T00:23:51.203Z,9.30
2023-11-16T00:26:20.574Z,9.20
2023-11-16T00:28:56.033Z,9.20
2023-11-16T00:31:24.630Z,9.10
2023-11-16T00:33:51.768Z,9.20
2023-11-16T00:36:19.689Z,9.20
2023-11-16T00:38:46.885Z,9.10
2023-11-16T00:41:16.428Z,9.10
2023-11-16T00:43:44.919Z,9.10
2023-11-16T00:46:13.101Z,9.10
2023-11-16T00:48:41.093Z,9.00
2023-11-16T00:51:11.403Z,9.00
2023-11-16T00:53:43.897Z,9.00
2023-11-16T00:56:12.190Z,8.90
2023-11-16T00:58:40.083Z,8.90
2023-11-16T01:01:07.762Z,8.80
2023-11-16T01:03:35.261Z,8.80
2023-11-16T01:06:03.569Z,8.70
2023-11-16T01:08:34.852Z,8.70
2023-11-16T01:11:05.137Z,8.70
2023-11-16T01:13:39.875Z,8.70
2023-11-16T01:16:16.434Z,8.70
2023-11-16T01:18:51.465Z,8.70
2023-11-16T01:21:19.862Z,8.60
2023-11-16T01:23:49.013Z,8.60
2023-11-16T01:26:20.019Z,8.60
2023-11-16T01:28:51.498Z,8.60
2023-11-16T01:31:20.887Z,8.60
2023-11-16T01:33:48.560Z,8.60
2023-11-16T01:36:15.905Z,8.50
2023-11-16T01:38:43.202Z,8.60
2023-11-16T01:41:11.205Z,8.50
2023-11-16T01:43:38.492Z,8.60
2023-11-16T01:46:10.757Z,8.60
2023-11-16T01:48:41.770Z,8.60
2023-11-16T01:51:12.635Z,8.60
2023-11-16T01:53:50.045Z,8.60
2023-11-16T01:56:17.662Z,8.60
2023-11-16T01:58:48.108Z,8.60
2023-11-16T02:01:18.212Z,8.50
2023-11-16T02:03:49.051Z,8.50
2023-11-16T02:06:17.529Z,8.50
2023-11-16T02:08:46.957Z,8.50
2023-11-16T02:11:16.940Z,8.60
2023-11-16T02:13:46.923Z,8.60
2023-11-16T02:16:15.372Z,8.50
2023-11-16T02:18:42.855Z,8.50
2023-11-16T02:21:10.529Z,8.50
2023-11-16T02:23:38.294Z,8.50
2023-11-16T02:26:05.671Z,8.50
2023-11-16T02:28:32.647Z,8.60
2023-11-16T02:31:02.226Z,8.60
2023-11-16T02:33:29.557Z,8.50
2023-11-16T02:35:58.462Z,8.60
2023-11-16T02:38:25.818Z,8.60
2023-11-16T02:40:53.484Z,8.60
2023-11-16T02:43:22.472Z,8.60
2023-11-16T02:45:50.022Z,8.60
2023-11-16T02:48:17.269Z,8.60
2023-11-16T02:50:44.400Z,8.60
2023-11-16T02:53:11.562Z,8.60
2023-11-16T02:55:38.609Z,8.60
2023-11-16T02:58:07.472Z,8.60
2023-11-16T03:00:35.591Z,8.60
2023-11-16T03:03:04.384Z,8.60
2023-11-16T03:05:34.337Z,8.60
2023-11-16T03:08:01.791Z,8.60
2023-11-16T03:10:30.041Z,8.60
2023-11-16T03:12:57.441Z,8.60
2023-11-16T03:15:24.479Z,8.60
2023-11-16T03:17:51.606Z,8.60
2023-11-16T03:20:19.940Z,8.60
2023-11-16T03:22:46.927Z,8.60
2023-11-16T03:25:15.275Z,8.60
2023-11-16T03:27:43.674Z,8.70
2023-11-16T03:30:11.279Z,8.60
2023-11-16T03:32:38.307Z,8.70
2023-11-16T03:35:06.596Z,8.60
2023-11-16T03:37:33.729Z,8.70
2023-11-16T03:40:00.972Z,8.70
2023-11-16T03:42:28.127Z,8.70
2023-11-16T03:44:55.257Z,8.70
2023-11-16T03:47:22.377Z,8.60
2023-11-16T03:49:52.703Z,8.70
2023-11-16T03:52:19.762Z,8.60
2023-11-16T03:54:46.934Z,8.70
2023-11-16T03:57:15.231Z,8.60
2023-11-16T03:59:42.306Z,8.60
2023-11-16T04:02:09.528Z,8.60
2023-11-16T04:04:37.029Z,8.60
2023-11-16T04:07:04.233Z,8.60
2023-11-16T04:09:31.802Z,8.60
2023-11-16T04:11:58.980Z,8.60
2023-11-16T04:14:26.606Z,8.50
2023-11-16T04:16:54.160Z,8.60
2023-11-16T04:19:22.314Z,8.50
2023-11-16T04:21:51.944Z,8.50
2023-11-16T04:24:19.835Z,8.50
2023-11-16T04:26:49.997Z,8.40
2023-11-16T04:29:17.590Z,8.40
2023-11-16T04:31:46.526Z,8.40
2023-11-16T04:34:13.724Z,8.40
2023-11-16T04:36:43.384Z,8.40
2023-11-16T04:39:13.321Z,8.40
2023-11-16T04:41:46.763Z,8.40
2023-11-16T04:44:14.254Z,8.30
2023-11-16T04:46:48.337Z,8.30
2023-11-16T04:49:15.929Z,8.30
2023-11-16T04:51:44.967Z,8.30
2023-11-16T04:54:12.140Z,8.30
2023-11-16T04:56:39.553Z,8.20
2023-11-16T04:59:09.634Z,8.20
2023-11-16T05:01:37.023Z,8.20
2023-11-16T05:04:04.509Z,8.20
2023-11-16T05:06:31.547Z,8.20
2023-11-16T05:08:58.725Z,8.10
2023-11-16T05:11:25.971Z,8.10
2023-11-16T05:13:53.242Z,8.20
2023-11-16T05:16:20.544Z,8.20
2023-11-16T05:18:47.806Z,8.10
2023-11-16T05:21:17.812Z,8.10
2023-11-16T05:23:46.065Z,8.10
2023-11-16T05:26:13.148Z,8.10
2023-11-16T05:28:40.094Z,8.10
2023-11-16T05:31:07.324Z,8.10
2023-11-16T05:33:34.571Z,8.10
2023-11-16T05:36:02.381Z,8.10
2023-11-16T05:38:29.480Z,8.20
2023-11-16T05:40:56.486Z,8.10
2023-11-16T05:43:24.366Z,8.10
2023-11-16T05:45:51.717Z,8.10
2023-11-16T05:48:18.954Z,8.10
2023-11-16T05:50:47.395Z,8.10
2023-11-16T05:53:14.468Z,8.10
2023-11-16T05:55:41.574Z,8.10
2023-11-16T05:58:08.611Z,8.10
2023-11-16T06:00:39.585Z,8.10
2023-11-16T06:03:08.001Z,8.10
2023-11-16T06:05:37.128Z,8.00
2023-11-16T06:08:04.677Z,8.00
2023-11-16T06:10:32.164Z,8.00
2023-11-16T06:13:00.896Z,8.00
2023-11-16T06:15:31.716Z,8.00
2023-11-16T06:18:04.196Z,8.00
2023-11-16T06:20:31.586Z,8.00
2023-11-16T06:22:58.753Z,8.00
2023-11-16T06:25:26.892Z,8.00
2023-11-16T06:27:54.085Z,8.00
2023-11-16T06:30:21.375Z,8.00
2023-11-16T06:32:49.026Z,7.90
2023-11-16T06:35:17.223Z,8.00
2023-11-16T06:37:44.919Z,7.90
2023-11-16T06:40:13.128Z,7.90
2023-11-16T06:42:41.225Z,7.90
2023-11-16T06:45:09.399Z,7.90
2023-11-16T06:47:36.974Z,7.80
2023-11-16T06:50:05.632Z,7.90
2023-11-16T06:52:34.268Z,7.80
2023-11-16T06:55:02.443Z,7.90
2023-11-16T06:57:29.939Z,7.80
2023-11-16T06:59:58.817Z,7.80
2023-11-16T07:02:25.970Z,7.80
2023-11-16T07:04:53.008Z,7.80
2023-11-16T07:07:20.145Z,7.90
2023-11-16T07:09:48.210Z,7.90
2023-11-16T07:12:22.217Z,7.90
2023-11-16T07:14:53.774Z,7.80
2023-11-16T07:17:22.739Z,7.80
2023-11-16T07:19:50.469Z,7.80
2023-11-16T07:22:19.716Z,7.70
2023-11-16T07:24:49.082Z,7.70
2023-11-16T07:27:16.369Z,7.70
2023-11-16T07:29:46.663Z,7.70
2023-11-16T07:32:14.598Z,7.70
2023-11-16T07:34:43.031Z,7.70
2023-11-16T07:37:12.989Z,7.70
2023-11-16T07:39:41.829Z,7.70
2023-11-16T07:42:09.278Z,7.70
2023-11-16T07:44:36.386Z,7.70
2023-11-16T07:47:04.602Z,7.60
2023-11-16T07:49:35.448Z,7.70
2023-11-16T07:52:03.110Z,7.70
2023-11-16T07:54:31.267Z,7.70
2023-11-16T07:57:04.163Z,7.60
2023-11-16T07:59:36.058Z,7.70
2023-11-16T08:02:03.348Z,7.70
2023-11-16T08:04:36.021Z,7.70
2023-11-16T08:07:04.661Z,7.70
2023-11-16T08:09:32.587Z,7.80
2023-11-16T08:12:01.459Z,7.80
2023-11-16T08:14:32.600Z,7.80
2023-11-16T08:17:00.455Z,7.80
2023-11-16T08:19:28.589Z,7.90
2023-11-16T08:21:58.322Z,7.80
2023-11-16T08:24:27.625Z,7.80
2023-11-16T08:26:57.972Z,7.80
2023-11-16T08:29:28.186Z,7.80
2023-11-16T08:31:58.128Z,7.70
2023-11-16T08:34:29.451Z,7.80
2023-11-16T08:36:57.284Z,7.90
2023-11-16T08:39:25.167Z,7.90
2023-11-16T08:41:54.232Z,7.90
2023-11-16T08:44:23.812Z,7.90
2023-11-16T08:46:57.305Z,8.00
2023-11-16T08:49:24.777Z,8.00
2023-11-16T08:52:00.638Z,8.00
2023-11-16T08:54:29.831Z,8.00
2023-11-16T08:56:59.216Z,8.00
2023-11-16T08:59:27.258Z,8.00
2023-11-16T09:01:55.989Z,8.10
2023-11-16T09:04:25.612Z,8.10
2023-11-16T09:06:53.265Z,8.10
2023-11-16T09:09:38.030Z,8.10
2023-11-16T09:12:14.316Z,8.10
2023-11-16T09:14:42.671Z,8.10
2023-11-16T09:17:18.690Z,8.10
2023-11-16T09:19:46.042Z,8.20
2023-11-16T09:22:13.213Z,8.10
2023-11-16T09:24:45.373Z,8.20
2023-11-16T09:27:13.315Z,8.20
2023-11-16T09:29:40.992Z,8.10
2023-11-16T09:32:12.390Z,8.10
2023-11-16T09:34:41.118Z,8.20
2023-11-16T09:37:09.666Z,8.20
2023-11-16T09:39:37.627Z,8.20
2023-11-16T09:42:09.956Z,8.20
2023-11-16T09:44:46.035Z,8.30
2023-11-16T09:47:27.260Z,8.30
2023-11-16T09:49:57.186Z,8.30
2023-11-16T09:52:27.576Z,8.20
2023-11-16T09:54:59.085Z,8.20
2023-11-16T09:57:28.251Z,8.20
2023-11-16T09:59:58.143Z,8.20
2023-11-16T10:02:27.152Z,8.20
2023-11-16T10:04:54.925Z,8.20
2023-11-16T10:07:27.206Z,8.20
2023-11-16T10:09:59.102Z,8.30
2023-11-16T10:12:27.105Z,8.30
2023-11-16T10:14:54.249Z,8.30
2023-11-16T10:17:26.892Z,8.30
2023-11-16T10:19:54.189Z,8.40
2023-11-16T10:22:21.404Z,8.40
2023-11-16T10:24:52.147Z,8.40
2023-11-16T10:27:19.569Z,8.40
2023-11-16T10:29:47.889Z,8.50
2023-11-16T10:32:16.270Z,8.50
2023-11-16T10:34:43.361Z,8.50
2023-11-16T10:37:12.512Z,8.50
2023-11-16T10:39:41.803Z,8.40
2023-11-16T10:42:09.668Z,8.50
2023-11-16T10:44:39.424Z,8.50
2023-11-16T10:47:08.860Z,8.50
2023-11-16T10:49:36.125Z,8.50
2023-11-16T10:52:06.816Z,8.50
2023-11-16T10:54:40.810Z,8.50
2023-11-16T10:57:08.198Z,8.60
2023-11-16T10:59:36.300Z,8.60
2023-11-16T11:02:09.431Z,8.60
2023-11-16T11:04:36.695Z,8.50
2023-11-16T11:07:10.696Z,8.50
2023-11-16T11:10:07.661Z,8.60
2023-11-16T11:13:18.666Z,8.50
2023-11-16T11:15:49.043Z,8.40
2023-11-16T11:18:28.821Z,8.50
2023-11-16T11:21:09.632Z,8.50
2023-11-16T11:23:41.413Z,8.60
2023-11-16T11:26:08.853Z,8.60
2023-11-16T11:28:39.685Z,8.60
2023-11-16T11:31:11.819Z,8.60
2023-11-16T11:33:40.739Z,8.60
2023-11-16T11:36:16.190Z,8.50
2023-11-16T11:38:47.652Z,8.60
2023-11-16T11:41:15.924Z,8.60
2023-11-16T11:43:43.762Z,8.60
2023-11-16T11:46:12.997Z,8.60
2023-11-16T11:48:41.670Z,8.50
2023-11-16T11:51:10.148Z,8.60
2023-11-16T11:53:38.224Z,8.60
2023-11-16T11:56:12.088Z,8.60
2023-11-16T11:58:42.890Z,8.60
2023-11-16T12:01:12.424Z,8.60
2023-11-16T12:03:56.567Z,8.60
2023-11-16T12:06:29.085Z,8.60
2023-11-16T12:08:56.368Z,8.50
2023-11-16T12:11:27.125Z,8.50
2023-11-16T12:14:00.537Z,8.50
2023-11-16T12:16:29.623Z,8.50
2023-11-16T12:18:57.553Z,8.50
2023-11-16T12:21:25.298Z,8.50
2023-11-16T12:23:56.917Z,8.60
2023-11-16T12:26:28.686Z,8.60
2023-11-16T12:28:56.652Z,8.60
2023-11-16T12:31:27.923Z,8.60
2023-11-16T12:33:57.073Z,8.60
2023-11-16T12:36:26.764Z,8.60
2023-11-16T12:38:57.321Z,8.60
2023-11-16T12:41:26.202Z,8.60
2023-11-16T12:43:53.626Z,8.60
2023-11-16T12:46:21.137Z,8.60
2023-11-16T12:48:48.519Z,8.60
2023-11-16T12:51:20.801Z,8.60
2023-11-16T12:53:48.282Z,8.60
2023-11-16T12:56:16.560Z,8.60
2023-11-16T12:58:44.476Z,8.60
2023-11-16T13:01:14.759Z,8.60
2023-11-16T13:03:49.679Z,8.60
2023-11-16T13:06:20.641Z,8.60
2023-11-16T13:08:49.334Z,8.50
2023-11-16T13:11:16.801Z,8.50
2023-11-16T13:13:44.119Z,8.50
2023-11-16T13:16:13.985Z,8.50
2023-11-16T13:18:41.330Z,8.50
2023-11-16T13:21:12.282Z,8.50
2023-11-16T13:23:50.457Z,8.50
2023-11-16T13:26:17.851Z,8.50
2023-11-16T13:28:46.292Z,8.50
2023-11-16T13:31:15.709Z,8.50
2023-11-16T13:33:42.869Z,8.50
2023-11-16T13:36:10.297Z,8.50
2023-11-16T13:38:37.429Z,8.60
2023-11-16T13:41:06.658Z,8.50
2023-11-16T13:43:33.822Z,8.60
2023-11-16T13:46:01.496Z,8.50
2023-11-16T13:48:29.216Z,8.50
2023-11-16T13:50:56.141Z,8.60
2023-11-16T13:53:23.941Z,8.60
2023-11-16T13:55:50.964Z,8.50
2023-11-16T13:58:17.992Z,8.60
2023-11-16T14:00:45.532Z,8.50
2023-11-16T14:03:14.197Z,8.60
2023-11-16T14:05:42.604Z,8.60
2023-11-16T14:08:09.878Z,8.60
2023-11-16T14:10:36.863Z,8.60
2023-11-16T14:13:04.046Z,8.60
2023-11-16T14:15:33.151Z,8.60
2023-11-16T14:18:00.371Z,8.50
2023-11-16T14:20:27.346Z,8.50
2023-11-16T14:22:54.417Z,8.50
2023-11-16T14:25:27.854Z,8.50
2023-11-16T14:28:02.121Z,8.60
2023-11-16T14:30:29.118Z,8.50
2023-11-16T14:32:56.160Z,8.50
2023-11-16T14:35:26.614Z,8.50
2023-11-16T14:37:54.099Z,8.50
2023-11-16T14:40:21.656Z,8.50
2023-11-16T14:42:48.931Z,8.50
2023-11-16T14:45:16.155Z,8.60
2023-11-16T14:47:43.264Z,8.60
2023-11-16T14:50:10.847Z,8.60
2023-11-16T14:52:38.597Z,8.60
2023-11-16T14:55:08.876Z,8.70
2023-11-16T14:57:39.366Z,8.60
2023-11-16T15:00:07.556Z,8.60
2023-11-16T15:02:34.594Z,8.60
2023-11-16T15:05:08.843Z,8.60
2023-11-16T15:07:38.243Z,8.60
2023-11-16T15:10:06.456Z,8.60
2023-11-16T15:12:34.745Z,8.60
2023-11-16T15:15:02.332Z,8.60
2023-11-16T15:17:29.506Z,8.60
2023-11-16T15:19:56.465Z,8.60
2023-11-16T15:22:23.832Z,8.50
2023-11-16T15:24:50.929Z,8.50
2023-11-16T15:27:17.975Z,8.50
2023-11-16T15:29:46.860Z,8.50
2023-11-16T15:32:20.214Z,8.50
2023-11-16T15:34:48.191Z,8.60
2023-11-16T15:37:17.040Z,8.50
2023-11-16T15:39:44.062Z,8.50
2023-11-16T15:42:11.316Z,8.50
2023-11-16T15:44:38.299Z,8.50
2023-11-16T15:47:05.350Z,8.50
2023-11-16T15:49:32.323Z,8.50
2023-11-16T15:51:59.358Z,8.50
2023-11-16T15:54:28.613Z,8.40
2023-11-16T15:56:55.636Z,8.40
2023-11-16T15:59:22.613Z,8.40
2023-11-16T16:01:49.703Z,8.40
2023-11-16T16:04:16.978Z,8.40
2023-11-16T16:06:44.218Z,8.40
2023-11-16T16:09:12.377Z,8.40
2023-11-16T16:11:39.315Z,8.40
2023-11-16T16:14:06.665Z,8.40
2023-11-16T16:16:34.963Z,8.40
2023-11-16T16:19:03.857Z,8.40
2023-11-16T16:21:30.875Z,8.40
2023-11-16T16:23:57.913Z,8.40
2023-11-16T16:26:25.996Z,8.40
2023-11-16T16:28:54.693Z,8.40
2023-11-16T16:31:23.771Z,8.40
2023-11-16T16:33:51.307Z,8.40
2023-11-16T16:36:18.442Z,8.30
2023-11-16T16:38:45.416Z,8.30
2023-11-16T16:41:12.598Z,8.30
2023-11-16T16:43:43.377Z,8.30
2023-11-16T16:46:26.056Z,8.20
2023-11-16T16:48:53.371Z,8.20
2023-11-16T16:51:20.718Z,8.20
2023-11-16T16:53:47.722Z,8.20
2023-11-16T16:56:14.925Z,8.20
2023-11-16T16:58:41.941Z,8.20
2023-11-16T17:01:09.109Z,8.20
2023-11-16T17:03:37.528Z,8.20
2023-11-16T17:06:05.207Z,8.10
2023-11-16T17:08:32.158Z,8.10
2023-11-16T17:10:59.180Z,8.10
2023-11-16T17:13:27.034Z,8.10
2023-11-16T17:15:54.124Z,8.10
2023-11-16T17:18:21.133Z,8.10
2023-11-16T17:20:50.087Z,8.10
2023-11-16T17:23:17.699Z,8.10
2023-11-16T17:25:44.979Z,8.00
2023-11-16T17:28:13.153Z,8.00
2023-11-16T17:30:40.185Z,8.00
2023-11-16T17:33:07.355Z,8.00
2023-11-16T17:35:34.989Z,7.90
2023-11-16T17:38:02.050Z,7.90
2023-11-16T17:40:29.175Z,7.90
2023-11-16T17:42:56.500Z,7.80
2023-11-16T17:45:25.156Z,7.80
2023-11-16T17:47:54.216Z,7.80
2023-11-16T17:50:22.057Z,7.80
2023-11-16T17:52:50.245Z,7.80
2023-11-16T17:55:20.274Z,7.80
2023-11-16T17:57:48.669Z,7.80
2023-11-16T18:00:16.618Z,7.80
2023-11-16T18:02:45.169Z,7.80
2023-11-16T18:05:15.876Z,7.80
2023-11-16T18:07:43.347Z,7.80
2023-11-16T18:10:11.229Z,7.80
2023-11-16T18:12:41.095Z,7.70
2023-11-16T18:15:08.568Z,7.80
2023-11-16T18:17:36.222Z,7.70
2023-11-16T18:20:07.106Z,7.70
2023-11-16T18:22:34.522Z,7.70
2023-11-16T18:25:01.624Z,7.70
2023-11-16T18:27:30.833Z,7.70
2023-11-16T18:29:57.939Z,7.60
2023-11-16T18:32:24.945Z,7.60
2023-11-16T18:34:54.175Z,7.60
2023-11-16T18:37:21.981Z,7.60
2023-11-16T18:39:49.371Z,7.60
2023-11-16T18:42:17.691Z,7.60
2023-11-16T18:44:44.813Z,7.50
2023-11-16T18:47:12.688Z,7.60
2023-11-16T18:49:40.591Z,7.50
2023-11-16T18:52:09.380Z,7.50
2023-11-16T18:54:36.736Z,7.40
2023-11-16T18:57:04.213Z,7.40
2023-11-16T18:59:32.823Z,7.40
2023-11-16T19:02:00.079Z,7.40
2023-11-16T19:04:27.287Z,7.40
2023-11-16T19:06:54.521Z,7.30
2023-11-16T19:09:22.492Z,7.30
2023-11-16T19:11:52.149Z,7.40
2023-11-16T19:14:23.156Z,7.30
2023-11-16T19:16:50.328Z,7.30
2023-11-16T19:19:18.185Z,7.30
2023-11-16T19:21:50.284Z,7.40
2023-11-16T19:24:17.524Z,7.40
2023-11-16T19:26:47.823Z,7.30
2023-11-16T19:29:16.532Z,7.30
2023-11-16T19:31:46.990Z,7.30
2023-11-16T19:34:14.704Z,7.30
2023-11-16T19:36:43.591Z,7.30
2023-11-16T19:39:10.697Z,7.20
2023-11-16T19:41:42.853Z,7.20
2023-11-16T19:44:10.213Z,7.20
2023-11-16T19:46:37.391Z,7.20
2023-11-16T19:49:05.031Z,7.20
2023-11-16T19:51:33.550Z,7.20
2023-11-16T19:54:02.503Z,7.10
2023-11-16T19:56:29.866Z,7.10
2023-11-16T19:58:57.369Z,7.10
2023-11-16T20:01:27.045Z,7.10
2023-11-16T20:03:55.677Z,7.00
2023-11-16T20:06:23.853Z,7.10
2023-11-16T20:08:50.965Z,7.00
2023-11-16T20:11:18.209Z,6.90
2023-11-16T20:13:46.827Z,7.00
2023-11-16T20:16:15.934Z,7.00
2023-11-16T20:18:45.898Z,6.90
2023-11-16T20:21:13.342Z,6.90
2023-11-16T20:23:42.395Z,7.00
2023-11-16T20:26:12.768Z,6.90
2023-11-16T20:28:40.009Z,6.90
2023-11-16T20:31:07.888Z,6.90
2023-11-16T20:33:35.437Z,6.90
2023-11-16T20:36:02.658Z,6.90
2023-11-16T20:38:29.824Z,6.80
2023-11-16T20:40:56.838Z,6.90
2023-11-16T20:43:25.317Z,6.80
2023-11-16T20:45:53.980Z,6.80
2023-11-16T20:48:21.700Z,6.80
2023-11-16T20:50:48.788Z,6.70
2023-11-16T20:53:17.685Z,6.70
2023-11-16T20:55:44.907Z,6.70
2023-11-16T20:58:11.980Z,6.70
2023-11-16T21:00:40.885Z,6.70
2023-11-16T21:03:08.065Z,6.70
2023-11-16T21:05:36.331Z,6.70
2023-11-16T21:08:03.535Z,6.70
2023-11-16T21:10:30.777Z,6.70
2023-11-16T21:12:57.946Z,6.70
2023-11-16T21:15:25.127Z,6.70
2023-11-16T21:17:52.199Z,6.70
2023-11-16T21:20:19.377Z,6.60
2023-11-16T21:22:46.432Z,6.60
2023-11-16T21:25:15.291Z,6.60
2023-11-16T21:27:43.993Z,6.50
2023-11-16T21:30:11.474Z,6.60
2023-11-16T21:32:39.785Z,6.50
2023-11-16T21:35:16.332Z,6.50
2023-11-16T21:37:44.771Z,6.50
2023-11-16T21:40:13.518Z,6.50
2023-11-16T21:42:42.212Z,6.50
2023-11-16T21:45:11.266Z,6.50
2023-11-16T21:47:40.050Z,6.50
2023-11-16T21:50:12.573Z,6.50
2023-11-16T21:52:39.677Z,6.40
2023-11-16T21:55:07.798Z,6.40
2023-11-16T21:57:35.317Z,6.50
2023-11-16T22:00:03.176Z,6.50
2023-11-16T22:02:37.570Z,6.40
2023-11-16T22:05:17.304Z,6.40
2023-11-16T22:07:47.543Z,6.40
2023-11-16T22:10:19.630Z,6.30
2023-11-16T22:12:49.781Z,6.40
2023-11-16T22:15:20.722Z,6.40
2023-11-16T22:17:50.901Z,6.40
2023-11-16T22:20:21.145Z,6.40
2023-11-16T22:22:49.831Z,6.40
2023-11-16T22:25:18.729Z,6.30
2023-11-16T22:27:48.994Z,6.20
2023-11-16T22:30:24.493Z,6.30
2023-11-16T22:32:51.948Z,6.30
2023-11-16T22:35:19.441Z,6.30
2023-11-16T22:37:47.794Z,6.20
2023-11-16T22:40:17.885Z,6.20
2023-11-16T22:42:45.878Z,6.20
2023-11-16T22:45:16.468Z,6.30
2023-11-16T22:47:45.356Z,6.30
2023-11-16T22:50:15.183Z,6.30
2023-11-16T22:52:43.684Z,6.30
2023-11-16T22:55:12.063Z,6.20
2023-11-16T22:57:40.556Z,6.20
2023-11-16T23:00:11.255Z,6.20
2023-11-16T23:02:42.431Z,6.20
2023-11-16T23:05:11.008Z,6.20
2023-11-16T23:07:39.105Z,6.20
2023-11-16T23:10:09.043Z,6.20
2023-11-16T23:12:36.495Z,6.10
2023-11-16T23:15:05.269Z,6.20
2023-11-16T23:17:32.509Z,6.20
2023-11-16T23:19:59.568Z,6.20
2023-11-16T23:22:26.877Z,6.20
2023-11-16T23:24:55.084Z,6.20
2023-11-16T23:27:22.649Z,6.20
2023-11-16T23:29:49.700Z,6.20
2023-11-16T23:32:16.759Z,6.10
2023-11-16T23:34:44.710Z,6.10
2023-11-16T23:37:11.940Z,6.00
2023-11-16T23:39:39.014Z,5.90
2023-11-16T23:42:06.911Z,5.90
2023-11-16T23:44:34.187Z,6.00
2023-11-16T23:47:01.731Z,6.00
2023-11-16T23:49:28.897Z,5.90
2023-11-16T23:51:56.016Z,5.80
2023-11-16T23:54:23.221Z,5.70
2023-11-16T23:56:50.240Z,5.70
2023-11-16T23:59:17.645Z,5.70
